»·PEaware :: N172TT KPSP-KLAX

N172TT :: KPSP-KLAX

FLIGHT INFORMATION

Flight Status: Arrived
Operator: Privately registered:
United States
More flights under this callsign
Pilot: Thomas T. (19955)
Aircraft: BEECH AIRCRAFT BARON
(BE58)
More flights by this aircraft type
Origin: KPSP Palm Springs Intl
United States
Destination: KLAX Los Angeles Intl
United States
More flights between these airports :: More routes between these airports
Route: +CATH1 PSP V388 PDZ LAHAB
File this flight plan on PilotEdge
Remarks: TEC route PSPP10A
Altitude:
(Current/Filed)
10,000ft
Speed:
(Current/Filed)
168kts
Departed: 03-Dec-18 12:19 PM
Arrived: 03-Dec-18 01:03 PM
Distance/Time
Traveled:
95nm/0:44
Distance/Time
To Go:
Arrived

Flight Plot

Page will automatically refresh every two minutes.

Flight plan parsing failed; only flown route is shown


Map Options




Map Legend


Flown Route
Filed Route
Departure Airport
Arrival Airport
Navaid (VOR, NDB)
Fix

Horizontal Profiles

Position Reports

Time Latitude Longitude Heading Altitude Ground
Speed
03-Dec-18 12:12 33.823177 -116.498179 55 394ft 0kts
03-Dec-18 12:13 33.823177 -116.498179 55 394ft 0kts
03-Dec-18 12:14 33.823177 -116.498179 55 394ft 0kts
03-Dec-18 12:15 33.823177 -116.498179 55 394ft 0kts
03-Dec-18 12:16 33.823177 -116.498179 55 394ft 0kts
03-Dec-18 12:17 33.823177 -116.498179 55 394ft 0kts
03-Dec-18 12:18 33.823177 -116.498179 55 394ft 0kts
03-Dec-18 12:19 33.824559 -116.499083 327 398ft 6kts
03-Dec-18 12:20 33.824697 -116.499496 232 399ft 0kts
03-Dec-18 12:21 33.824697 -116.499496 232 399ft 0kts
03-Dec-18 12:22 33.827487 -116.502846 325 412ft 85kts
03-Dec-18 12:23 33.854424 -116.528552 324 1719ft 139kts
03-Dec-18 12:24 33.884415 -116.557023 324 3386ft 138kts
03-Dec-18 12:25 33.902869 -116.540033 97 4992ft 124kts
03-Dec-18 12:26 33.891786 -116.497982 106 6112ft 137kts
03-Dec-18 12:27 33.878051 -116.454755 105 7210ft 140kts
03-Dec-18 12:28 33.861428 -116.410487 120 8080ft 155kts
03-Dec-18 12:29 33.880075 -116.393743 314 8857ft 138kts
03-Dec-18 12:30 33.902600 -116.430010 310 9681ft 135kts
03-Dec-18 12:31 33.925735 -116.466217 310 10193ft 147kts
03-Dec-18 12:32 33.945252 -116.511514 274 10187ft 168kts
03-Dec-18 12:33 33.943243 -116.567871 264 10183ft 173kts
03-Dec-18 12:34 33.941066 -116.624491 279 10183ft 169kts
03-Dec-18 12:35 33.945278 -116.680215 280 10175ft 169kts
03-Dec-18 12:36 33.950167 -116.736621 280 10158ft 169kts
03-Dec-18 12:37 33.948121 -116.792997 272 10142ft 171kts
03-Dec-18 12:38 33.947036 -116.847997 273 10033ft 172kts
03-Dec-18 12:39 33.946128 -116.905446 273 10021ft 170kts
03-Dec-18 12:40 33.945208 -116.962366 273 10021ft 169kts
03-Dec-18 12:41 33.944263 -117.018527 273 10021ft 168kts
03-Dec-18 12:42 33.943335 -117.074113 272 10021ft 167kts
03-Dec-18 12:43 33.942341 -117.129844 272 10021ft 166kts
03-Dec-18 12:44 33.941333 -117.185342 272 10022ft 166kts
03-Dec-18 12:45 33.940671 -117.240909 274 10024ft 165kts
03-Dec-18 12:46 33.940627 -117.298481 274 9619ft 179kts
03-Dec-18 12:47 33.940436 -117.359298 274 9126ft 184kts
03-Dec-18 12:48 33.940093 -117.421239 274 8655ft 187kts
03-Dec-18 12:49 33.939710 -117.484144 274 8200ft 190kts
03-Dec-18 12:50 33.939037 -117.546487 272 8065ft 182kts
03-Dec-18 12:51 33.936695 -117.607174 272 8069ft 180kts
03-Dec-18 12:52 33.934696 -117.665966 265 7579ft 194kts
03-Dec-18 12:53 33.936316 -117.730627 264 7091ft 193kts
03-Dec-18 12:54 33.935288 -117.795228 265 6612ft 194kts
03-Dec-18 12:55 33.933349 -117.859168 264 6153ft 195kts
03-Dec-18 12:56 33.931222 -117.921347 264 6051ft 187kts
03-Dec-18 12:57 33.933118 -117.985170 268 5618ft 198kts
03-Dec-18 12:58 33.933998 -118.050722 268 5235ft 198kts
03-Dec-18 12:59 33.932015 -118.119346 268 4403ft 213kts
03-Dec-18 13:00 33.935348 -118.180518 295 3792ft 157kts
03-Dec-18 13:01 33.950907 -118.225519 270 3046ft 133kts
03-Dec-18 13:02 33.946039 -118.274053 271 2483ft 170kts
03-Dec-18 13:03 33.943565 -118.320472 262 1123ft 119kts
03-Dec-18 13:04 33.939627 -118.359737 263 513ft 111kts
03-Dec-18 13:05 33.936206 -118.393234 261 99ft 68kts
03-Dec-18 13:06 33.933399 -118.402996 220 112ft 18kts

Navigation Log

Ident Type
Flight plan parsing failed, navigation log unavailable